Errington Tide — YJVM6 — position and weather

sailwx.info

Track history (hours):
 
Tides and Currents Weather Stations Pressure Air Temp Water Temp Dewpoint Dewpoint Depression Visibility Wind Speed Wind Dir Waves Ship Positions

Errington Tide

Last reported at 2017-Sep-14 16:08 UTC. Time now 2017-Sep-19 20:25 UTC.
Position N 32°14' E 032°18'.

Length 50 m; draft 4 m.

MMSI: 576467000.

Date/timePositionNaut miles runAvg speedWind from/ knotsBaromVisibWave heightAir tempDewpointWater temp
2017-Sep-14 16:08N 32°14' E 032°18'3 9.8
2017-Sep-14 15:52N 32°16' E 032°18'610.1
2017-Sep-14 15:19N 32°22' E 032°19'310.0
2017-Sep-14 14:59N 32°25' E 032°20'5 9.9
2017-Sep-14 14:30N 32°30' E 032°21'6 9.8
2017-Sep-14 13:56N 32°35' E 032°21'4 9.2
2017-Sep-14 13:30N 32°39' E 032°22'16 9.1
2017-Sep-14 11:43N 32°55' E 032°23'3 9.0
2017-Sep-14 11:20N 32°59' E 032°24'2 6.2
2017-Sep-14 11:00N 33°01' E 032°23'0 0.3
2017-Sep-14 10:30N 33°01' E 032°23'0 0.0
2017-Sep-14 10:00N 33°01' E 032°23'0 0.0
2017-Sep-14 08:52N 33°01' E 032°23'1 1.1
2017-Sep-14 08:08N 33°01' E 032°22'1 3.8
2017-Sep-14 07:47N 33°02' E 032°22'2 1.9
2017-Sep-14 06:31N 33°03' E 032°19'0 3.3
2017-Sep-14 06:31N 33°03' E 032°19'4 2.5
2017-Sep-14 04:54N 33°01' E 032°23'0 0.3
2017-Sep-14 04:25N 33°01' E 032°23'1 3.1
2017-Sep-14 03:59N 33°02' E 032°22'1 1.1
2017-Sep-14 03:31N 33°02' E 032°22'1 1.4
2017-Sep-14 03:00N 33°02' E 032°23'1 1.8
2017-Sep-14 02:31N 33°02' E 032°22'1 1.7
2017-Sep-14 02:00N 33°03' E 032°21'1 2.2
2017-Sep-14 01:31N 33°03' E 032°20'1 1.8
2017-Sep-14 01:01N 33°03' E 032°21'1 1.7
2017-Sep-14 00:31N 33°02' E 032°22'2 1.7
2017-Sep-13 23:25N 33°01' E 032°24'1 2.1
2017-Sep-13 22:59N 33°01' E 032°25'1 1.9
2017-Sep-13 22:31N 33°01' E 032°26'1 2.0
2017-Sep-13 22:00N 33°01' E 032°27'0 0.8
2017-Sep-13 21:31N 33°01' E 032°28'1 2.5
2017-Sep-13 21:00N 33°01' E 032°26'1 2.5
2017-Sep-13 20:31N 33°02' E 032°25'1 2.4
2017-Sep-13 20:01N 33°03' E 032°24'1 2.4
2017-Sep-13 19:31N 33°03' E 032°23'1 2.3
2017-Sep-13 19:00N 33°04' E 032°21'1 2.3
2017-Sep-13 18:31N 33°04' E 032°20'0 0.4
2017-Sep-13 18:01N 33°04' E 032°20'1 1.7
2017-Sep-13 17:30N 33°04' E 032°21'1 2.3
2017-Sep-13 17:00N 33°03' E 032°22'2 3.1
2017-Sep-13 16:31N 33°01' E 032°22'1 2.0
2017-Sep-13 15:56N 33°02' E 032°21'2 4.6
2017-Sep-13 15:29N 33°04' E 032°20'1 1.3
2017-Sep-13 15:00N 33°04' E 032°19'0 1.0
2017-Sep-13 14:30N 33°04' E 032°20'1 0.6
2017-Sep-13 12:02N 33°04' E 032°22'0 2.4
2017-Sep-13 12:00N 33°04' E 032°22'0 0.7
2017-Sep-13 11:24N 33°04' E 032°21'3 1.4
2017-Sep-13 09:30N 33°01' E 032°22'1 1.6
2017-Sep-13 09:00N 33°01' E 032°23'1 1.7
2017-Sep-13 08:27N 33°01' E 032°24'2 0.9
2017-Sep-13 06:47N 33°00' E 032°26'1 2.2
2017-Sep-13 06:30N 33°01' E 032°25'1 2.2
2017-Sep-13 06:00N 33°02' E 032°24'1 2.2
2017-Sep-13 05:30N 33°02' E 032°23'1 2.2
2017-Sep-13 04:59N 33°03' E 032°22'1 2.2
2017-Sep-13 04:30N 33°03' E 032°21'1 2.0
2017-Sep-13 04:00N 33°04' E 032°20'1 2.4
2017-Sep-13 03:30N 33°04' E 032°18'2 1.5
2017-Sep-13 02:09N 33°03' E 032°20'0 1.6
2017-Sep-13 02:00N 33°03' E 032°21'1 2.0
2017-Sep-13 01:30N 33°03' E 032°22'1 1.4
2017-Sep-13 00:51N 33°02' E 032°23'1 1.9
2017-Sep-13 00:28N 33°02' E 032°23'1 2.0
2017-Sep-13 00:00N 33°01' E 032°24'1 0.5
2017-Sep-12 21:06N 33°01' E 032°26'0 2.4
2017-Sep-12 21:00N 33°01' E 032°26'1 2.4
2017-Sep-12 20:29N 33°01' E 032°24'1 2.5
2017-Sep-12 20:00N 33°02' E 032°23'1 2.5
2017-Sep-12 19:29N 33°03' E 032°22'1 2.5
2017-Sep-12 19:00N 33°03' E 032°20'1 2.4
2017-Sep-12 18:30N 33°04' E 032°19'8 2.7
2017-Sep-12 15:27N 32°59' E 032°27'1 2.1
2017-Sep-12 15:00N 32°60' E 032°26'1 1.2
2017-Sep-12 14:30N 32°60' E 032°26'1 2.1
2017-Sep-12 14:00N 33°00' E 032°24'1 2.1
2017-Sep-12 13:30N 33°00' E 032°23'1 2.1
2017-Sep-12 13:00N 33°01' E 032°22'1 2.0
2017-Sep-12 12:30N 33°01' E 032°21'1 1.9
2017-Sep-12 12:00N 33°01' E 032°20'1 1.5
2017-Sep-12 11:26N 33°02' E 032°19'0 0.1
2017-Sep-12 11:00N 33°02' E 032°19'2 1.8
2017-Sep-12 09:41N 33°01' E 032°22'0 1.8
2017-Sep-12 09:26N 33°01' E 032°22'1 1.9
2017-Sep-12 09:00N 33°01' E 032°23'1 2.0
2017-Sep-12 08:30N 33°01' E 032°24'1 2.0
2017-Sep-12 08:00N 33°01' E 032°26'1 1.9
2017-Sep-12 07:27N 33°00' E 032°27'1 1.9
2017-Sep-12 07:00N 32°60' E 032°28'1 2.0
2017-Sep-12 06:30N 32°59' E 032°28'1 2.0
2017-Sep-12 06:00N 32°60' E 032°27'1 1.8
2017-Sep-12 05:13N 33°01' E 032°26'0 1.8
2017-Sep-12 05:00N 33°01' E 032°26'1 1.8
2017-Sep-12 04:19N 33°02' E 032°25'1 2.0
2017-Sep-12 04:00N 33°02' E 032°24'1 1.3
2017-Sep-12 03:30N 33°03' E 032°24'1 1.2
2017-Sep-12 03:00N 33°03' E 032°23'1 1.2
2017-Sep-12 02:28N 33°03' E 032°22'1 1.1
2017-Sep-12 02:00N 33°04' E 032°22'1 1.0
2017-Sep-12 01:30N 33°04' E 032°21'1 1.1
2017-Sep-12 01:00N 33°04' E 032°21'1 1.1
2017-Sep-12 00:30N 33°04' E 032°20'1 1.1
2017-Sep-12 00:00N 33°05' E 032°20'1 1.1
2017-Sep-11 23:30N 33°05' E 032°19'1 1.1
2017-Sep-11 22:59N 33°05' E 032°18'1 1.3
2017-Sep-11 22:29N 33°04' E 032°19'1 2.8
2017-Sep-11 22:00N 33°04' E 032°20'2 2.9
2017-Sep-11 21:17N 33°02' E 032°22'1 2.8
2017-Sep-11 21:00N 33°02' E 032°23'1 2.9
2017-Sep-11 20:30N 33°01' E 032°24'2 2.7
2017-Sep-11 19:36N 33°00' E 032°27'0 2.3
2017-Sep-11 19:28N 33°00' E 032°27'6 1.6
2017-Sep-11 15:51N 33°01' E 032°20'1 0.8
2017-Sep-11 14:11N 32°60' E 032°21'0 0.0
2017-Sep-11 13:58N 32°60' E 032°21'0 0.3
2017-Sep-11 13:26N 32°60' E 032°20'1 1.6
2017-Sep-11 13:00N 33°00' E 032°20'0 0.5
2017-Sep-11 12:30N 32°60' E 032°20'1 1.1
2017-Sep-11 12:00N 32°60' E 032°20'1 1.3
2017-Sep-11 11:30N 32°59' E 032°21'1 1.4
2017-Sep-11 11:00N 32°58' E 032°21'3 2.7
2017-Sep-11 10:00N 32°56' E 032°22'2 4.4
2017-Sep-11 09:30N 32°54' E 032°22'2 4.4
2017-Sep-11 08:59N 32°51' E 032°22'3 5.7
2017-Sep-11 08:30N 32°49' E 032°22'4 6.7
2017-Sep-11 07:54N 32°45' E 032°21'3 6.8
2017-Sep-11 07:30N 32°42' E 032°20'3 6.8
2017-Sep-11 07:00N 32°39' E 032°20'4 7.0
2017-Sep-11 06:30N 32°35' E 032°20'4 6.9
2017-Sep-11 05:59N 32°32' E 032°19'3 6.8
2017-Sep-11 05:30N 32°28' E 032°19'5 6.9
2017-Sep-11 04:47N 32°23' E 032°18'5 6.8
2017-Sep-11 04:06N 32°19' E 032°18'21 7.0
2017-Sep-11 01:03N 31°58' E 032°16'0 6.9
2017-Sep-11 01:00N 31°57' E 032°16'9 7.2
2017-Sep-10 23:49N 31°49' E 032°15'3 6.8
2017-Sep-10 23:24N 31°46' E 032°15'6 7.3
2017-Sep-10 22:38N 31°45' E 032°08'1 7.2
2017-Sep-10 22:28N 31°45' E 032°07'4 7.3
2017-Sep-10 21:58N 31°45' E 032°02'4 8.3
2017-Sep-10 21:29N 31°43' E 031°58'  
2017-Sep-07 16:26N 33°03' E 032°20'  
2017-Sep-05 03:57N 31°16' E 030°09'0 0.0
2017-Sep-05 03:30N 31°16' E 030°09'0 0.0
2017-Sep-05 02:54N 31°16' E 030°09'0 0.0
2017-Sep-05 02:27N 31°16' E 030°09'0 0.0
2017-Sep-05 02:00N 31°16' E 030°09'0 0.0
2017-Sep-05 01:30N 31°16' E 030°09'  
Track history (hours):
 
Tides and Currents Weather Stations Pressure Air Temp Water Temp Dewpoint Dewpoint Depression Visibility Wind Speed Wind Dir Waves Ship Positions

Errington Tide

Last reported at 2017-Sep-14 16:08 UTC. Time now 2017-Sep-19 20:25 UTC.
Position N 32°14' E 032°18'.

Length 50 m; draft 4 m.

MMSI: 576467000.

Date/timePositionNaut miles runAvg speedWind from/ knotsBaromVisibWave heightAir tempDewpointWater temp
2017-Sep-14 16:08N 32°14' E 032°18'3 9.8
2017-Sep-14 15:52N 32°16' E 032°18'610.1
2017-Sep-14 15:19N 32°22' E 032°19'310.0
2017-Sep-14 14:59N 32°25' E 032°20'5 9.9
2017-Sep-14 14:30N 32°30' E 032°21'6 9.8
2017-Sep-14 13:56N 32°35' E 032°21'4 9.2
2017-Sep-14 13:30N 32°39' E 032°22'16 9.1
2017-Sep-14 11:43N 32°55' E 032°23'3 9.0
2017-Sep-14 11:20N 32°59' E 032°24'2 6.2
2017-Sep-14 11:00N 33°01' E 032°23'0 0.3
2017-Sep-14 10:30N 33°01' E 032°23'0 0.0
2017-Sep-14 10:00N 33°01' E 032°23'0 0.0
2017-Sep-14 08:52N 33°01' E 032°23'1 1.1
2017-Sep-14 08:08N 33°01' E 032°22'1 3.8
2017-Sep-14 07:47N 33°02' E 032°22'2 1.9
2017-Sep-14 06:31N 33°03' E 032°19'0 3.3
2017-Sep-14 06:31N 33°03' E 032°19'4 2.5
2017-Sep-14 04:54N 33°01' E 032°23'0 0.3
2017-Sep-14 04:25N 33°01' E 032°23'1 3.1
2017-Sep-14 03:59N 33°02' E 032°22'1 1.1
2017-Sep-14 03:31N 33°02' E 032°22'1 1.4
2017-Sep-14 03:00N 33°02' E 032°23'1 1.8
2017-Sep-14 02:31N 33°02' E 032°22'1 1.7
2017-Sep-14 02:00N 33°03' E 032°21'1 2.2
2017-Sep-14 01:31N 33°03' E 032°20'1 1.8
2017-Sep-14 01:01N 33°03' E 032°21'1 1.7
2017-Sep-14 00:31N 33°02' E 032°22'2 1.7
2017-Sep-13 23:25N 33°01' E 032°24'1 2.1
2017-Sep-13 22:59N 33°01' E 032°25'1 1.9
2017-Sep-13 22:31N 33°01' E 032°26'1 2.0
2017-Sep-13 22:00N 33°01' E 032°27'0 0.8
2017-Sep-13 21:31N 33°01' E 032°28'1 2.5
2017-Sep-13 21:00N 33°01' E 032°26'1 2.5
2017-Sep-13 20:31N 33°02' E 032°25'1 2.4
2017-Sep-13 20:01N 33°03' E 032°24'1 2.4
2017-Sep-13 19:31N 33°03' E 032°23'1 2.3
2017-Sep-13 19:00N 33°04' E 032°21'1 2.3
2017-Sep-13 18:31N 33°04' E 032°20'0 0.4
2017-Sep-13 18:01N 33°04' E 032°20'1 1.7
2017-Sep-13 17:30N 33°04' E 032°21'1 2.3
2017-Sep-13 17:00N 33°03' E 032°22'2 3.1
2017-Sep-13 16:31N 33°01' E 032°22'1 2.0
2017-Sep-13 15:56N 33°02' E 032°21'2 4.6
2017-Sep-13 15:29N 33°04' E 032°20'1 1.3
2017-Sep-13 15:00N 33°04' E 032°19'0 1.0
2017-Sep-13 14:30N 33°04' E 032°20'1 0.6
2017-Sep-13 12:02N 33°04' E 032°22'0 2.4
2017-Sep-13 12:00N 33°04' E 032°22'0 0.7
2017-Sep-13 11:24N 33°04' E 032°21'3 1.4
2017-Sep-13 09:30N 33°01' E 032°22'1 1.6
2017-Sep-13 09:00N 33°01' E 032°23'1 1.7
2017-Sep-13 08:27N 33°01' E 032°24'2 0.9
2017-Sep-13 06:47N 33°00' E 032°26'1 2.2
2017-Sep-13 06:30N 33°01' E 032°25'1 2.2
2017-Sep-13 06:00N 33°02' E 032°24'1 2.2
2017-Sep-13 05:30N 33°02' E 032°23'1 2.2
2017-Sep-13 04:59N 33°03' E 032°22'1 2.2
2017-Sep-13 04:30N 33°03' E 032°21'1 2.0
2017-Sep-13 04:00N 33°04' E 032°20'1 2.4
2017-Sep-13 03:30N 33°04' E 032°18'2 1.5
2017-Sep-13 02:09N 33°03' E 032°20'0 1.6
2017-Sep-13 02:00N 33°03' E 032°21'1 2.0
2017-Sep-13 01:30N 33°03' E 032°22'1 1.4
2017-Sep-13 00:51N 33°02' E 032°23'1 1.9
2017-Sep-13 00:28N 33°02' E 032°23'1 2.0
2017-Sep-13 00:00N 33°01' E 032°24'1 0.5
2017-Sep-12 21:06N 33°01' E 032°26'0 2.4
2017-Sep-12 21:00N 33°01' E 032°26'1 2.4
2017-Sep-12 20:29N 33°01' E 032°24'1 2.5
2017-Sep-12 20:00N 33°02' E 032°23'1 2.5
2017-Sep-12 19:29N 33°03' E 032°22'1 2.5
2017-Sep-12 19:00N 33°03' E 032°20'1 2.4
2017-Sep-12 18:30N 33°04' E 032°19'8 2.7
2017-Sep-12 15:27N 32°59' E 032°27'1 2.1
2017-Sep-12 15:00N 32°60' E 032°26'1 1.2
2017-Sep-12 14:30N 32°60' E 032°26'1 2.1
2017-Sep-12 14:00N 33°00' E 032°24'1 2.1
2017-Sep-12 13:30N 33°00' E 032°23'1 2.1
2017-Sep-12 13:00N 33°01' E 032°22'1 2.0
2017-Sep-12 12:30N 33°01' E 032°21'1 1.9
2017-Sep-12 12:00N 33°01' E 032°20'1 1.5
2017-Sep-12 11:26N 33°02' E 032°19'0 0.1
2017-Sep-12 11:00N 33°02' E 032°19'2 1.8
2017-Sep-12 09:41N 33°01' E 032°22'0 1.8
2017-Sep-12 09:26N 33°01' E 032°22'1 1.9
2017-Sep-12 09:00N 33°01' E 032°23'1 2.0
2017-Sep-12 08:30N 33°01' E 032°24'1 2.0
2017-Sep-12 08:00N 33°01' E 032°26'1 1.9
2017-Sep-12 07:27N 33°00' E 032°27'1 1.9
2017-Sep-12 07:00N 32°60' E 032°28'1 2.0
2017-Sep-12 06:30N 32°59' E 032°28'1 2.0
2017-Sep-12 06:00N 32°60' E 032°27'1 1.8
2017-Sep-12 05:13N 33°01' E 032°26'0 1.8
2017-Sep-12 05:00N 33°01' E 032°26'1 1.8
2017-Sep-12 04:19N 33°02' E 032°25'1 2.0
2017-Sep-12 04:00N 33°02' E 032°24'1 1.3
2017-Sep-12 03:30N 33°03' E 032°24'1 1.2
2017-Sep-12 03:00N 33°03' E 032°23'1 1.2
2017-Sep-12 02:28N 33°03' E 032°22'1 1.1
2017-Sep-12 02:00N 33°04' E 032°22'1 1.0
2017-Sep-12 01:30N 33°04' E 032°21'1 1.1
2017-Sep-12 01:00N 33°04' E 032°21'1 1.1
2017-Sep-12 00:30N 33°04' E 032°20'1 1.1
2017-Sep-12 00:00N 33°05' E 032°20'1 1.1
2017-Sep-11 23:30N 33°05' E 032°19'1 1.1
2017-Sep-11 22:59N 33°05' E 032°18'1 1.3
2017-Sep-11 22:29N 33°04' E 032°19'1 2.8
2017-Sep-11 22:00N 33°04' E 032°20'2 2.9
2017-Sep-11 21:17N 33°02' E 032°22'1 2.8
2017-Sep-11 21:00N 33°02' E 032°23'1 2.9
2017-Sep-11 20:30N 33°01' E 032°24'2 2.7
2017-Sep-11 19:36N 33°00' E 032°27'0 2.3
2017-Sep-11 19:28N 33°00' E 032°27'6 1.6
2017-Sep-11 15:51N 33°01' E 032°20'1 0.8
2017-Sep-11 14:11N 32°60' E 032°21'0 0.0
2017-Sep-11 13:58N 32°60' E 032°21'0 0.3
2017-Sep-11 13:26N 32°60' E 032°20'1 1.6
2017-Sep-11 13:00N 33°00' E 032°20'0 0.5
2017-Sep-11 12:30N 32°60' E 032°20'1 1.1
2017-Sep-11 12:00N 32°60' E 032°20'1 1.3
2017-Sep-11 11:30N 32°59' E 032°21'1 1.4
2017-Sep-11 11:00N 32°58' E 032°21'3 2.7
2017-Sep-11 10:00N 32°56' E 032°22'2 4.4
2017-Sep-11 09:30N 32°54' E 032°22'2 4.4
2017-Sep-11 08:59N 32°51' E 032°22'3 5.7
2017-Sep-11 08:30N 32°49' E 032°22'4 6.7
2017-Sep-11 07:54N 32°45' E 032°21'3 6.8
2017-Sep-11 07:30N 32°42' E 032°20'3 6.8
2017-Sep-11 07:00N 32°39' E 032°20'4 7.0
2017-Sep-11 06:30N 32°35' E 032°20'4 6.9
2017-Sep-11 05:59N 32°32' E 032°19'3 6.8
2017-Sep-11 05:30N 32°28' E 032°19'5 6.9
2017-Sep-11 04:47N 32°23' E 032°18'5 6.8
2017-Sep-11 04:06N 32°19' E 032°18'21 7.0
2017-Sep-11 01:03N 31°58' E 032°16'0 6.9
2017-Sep-11 01:00N 31°57' E 032°16'9 7.2
2017-Sep-10 23:49N 31°49' E 032°15'3 6.8
2017-Sep-10 23:24N 31°46' E 032°15'6 7.3
2017-Sep-10 22:38N 31°45' E 032°08'1 7.2
2017-Sep-10 22:28N 31°45' E 032°07'4 7.3
2017-Sep-10 21:58N 31°45' E 032°02'4 8.3
2017-Sep-10 21:29N 31°43' E 031°58'  
2017-Sep-07 16:26N 33°03' E 032°20'  
2017-Sep-05 03:57N 31°16' E 030°09'0 0.0
2017-Sep-05 03:30N 31°16' E 030°09'0 0.0
2017-Sep-05 02:54N 31°16' E 030°09'0 0.0
2017-Sep-05 02:27N 31°16' E 030°09'0 0.0
2017-Sep-05 02:00N 31°16' E 030°09'0 0.0
2017-Sep-05 01:30N 31°16' E 030°09'  

Dump ship's entire track history